This is the latest recevied weather packets stored in our database for station/object OE3CJB-13. If no packets are shown the sender has not sent any weather packets the latest 10 day(s).
| Time | Temp. | Humidity | Pressure | Rain* | Wind** | Luminosity | Snow |
|---|---|---|---|---|---|---|---|
| 1787726729 | 18.33° C | 76% | 1135.6 hPa | 0 mm | - | - | - |
| 1787725817 | 18.33° C | 78% | 1134.1 hPa | 0 mm | - | - | - |
| 1787724952 | 17.78° C | 82% | 1132.5 hPa | 0 mm | - | - | - |
| 1787724068 | 17.78° C | 85% | 1131.7 hPa | 0 mm | - | - | - |
| 1787723129 | 17.78° C | 87% | 1130.1 hPa | 0 mm | - | - | - |
| 1787722265 | 17.22° C | 88% | 1129.4 hPa | 0 mm | - | - | - |
| 1787721354 | 16.67° C | 88% | 1128.7 hPa | 0 mm | - | - | - |
| 1787720443 | 16.67° C | 88% | 1128.6 hPa | 0 mm | - | - | - |
| 1787719567 | 16.67° C | 87% | 1130 hPa | 0 mm | - | - | - |
| 1787718617 | 16.67° C | 87% | 1130 hPa | 0 mm | - | - | - |
| 1787717752 | 16.67° C | 86% | 1131.3 hPa | 0 mm | - | - | - |
| 1787716843 | 16.67° C | 86% | 1132.1 hPa | 0 mm | - | - | - |
| 1787715929 | 16.67° C | 85% | 1133.6 hPa | 0 mm | - | - | - |
| 1787715017 | 16.67° C | 84% | 1134.3 hPa | 0 mm | - | - | - |
| 1787714153 | 16.67° C | 83% | 1134.2 hPa | 0 mm | - | - | - |
| 1787713243 | 16.67° C | 82% | 1135.8 hPa | 0 mm | - | - | - |
| 1787712330 | 16.67° C | 81% | 1136.4 hPa | 0 mm | - | - | - |
| 1787711417 | 17.22° C | 80% | 1138.7 hPa | 0 mm | - | - | - |
| 1787710553 | 17.78° C | 79% | 1141 hPa | 0 mm | - | - | - |
| 1787709643 | 17.78° C | 78% | 1142.5 hPa | 0 mm | - | - | - |
| 1787708729 | 17.78° C | 78% | 1142.5 hPa | 0 mm | - | - | - |
| 1787707817 | 17.78° C | 78% | 1143.8 hPa | 0 mm | - | - | - |
| 1787707000 | 18.33° C | 77% | 1145.2 hPa | 0 mm | - | - | - |
| 1787706043 | 18.33° C | 77% | 1146 hPa | 0 mm | - | - | - |
| 1787705165 | 18.33° C | 77% | 1147.5 hPa | 0 mm | - | - | - |
* Rain latest hour (hover to see other rain measurements)
** Current wind speed in m/s (hover to see current wind gust speed)